Time;durP1;ratioP1;P1;durP2;ratioP2;P2;SDS_P1;SDS_P2;PMS_P1;PMS_P2;Temp;Humidity;BMP_temperature;BMP_pressure;BME280_temperature;BME280_humidity;BME280_pressure;Samples;Min_cycle;Max_cycle;Signal;HPM_P1;HPM_P2
2022/04/02 00:00:23;;;;;;;4.97;1.63;;;;;;;3.16;100.00;101441.31;10220757;28;20045;-73
2022/04/02 00:05:19;;;;;;;6.80;1.50;;;;;;;2.97;100.00;101443.50;10215161;28;20124;-73
2022/04/02 00:10:16;;;;;;;4.15;1.73;;;;;;;3.07;100.00;101442.81;10229636;28;20073;-75
2022/04/02 00:15:13;;;;;;;3.72;1.40;;;;;;;2.86;100.00;101441.72;10227862;28;20099;-75
2022/04/02 00:20:10;;;;;;;5.03;2.15;;;;;;;2.96;100.00;101436.44;10225881;28;20499;-70
2022/04/02 00:25:07;;;;;;;4.82;1.42;;;;;;;2.93;100.00;101439.66;10224668;28;20054;-74
2022/04/02 00:30:04;;;;;;;3.35;1.20;;;;;;;2.90;100.00;101437.44;10230968;28;20077;-75
2022/04/02 00:35:00;;;;;;;4.93;1.58;;;;;;;3.03;100.00;101441.66;10221431;28;20099;-71
2022/04/02 00:39:57;;;;;;;3.67;1.73;;;;;;;2.85;100.00;101434.66;10223917;28;20124;-71
2022/04/02 00:44:53;;;;;;;7.63;2.17;;;;;;;3.00;100.00;101436.78;10222552;28;20535;-73
2022/04/02 00:49:53;;;;;;;5.45;1.90;;;;;;;2.77;100.00;101438.59;10228369;28;20136;-72
2022/04/02 00:54:51;;;;;;;7.57;1.85;;;;;;;2.79;100.00;101451.88;10211842;28;20820;-72
2022/04/02 00:59:48;;;;;;;8.43;2.15;;;;;;;2.73;100.00;101446.38;10222895;28;20142;-72
2022/04/02 01:04:46;;;;;;;6.25;1.92;;;;;;;2.87;100.00;101446.84;10217517;28;20724;-70
2022/04/02 01:09:43;;;;;;;4.72;1.88;;;;;;;2.89;100.00;101452.81;10213822;28;20111;-73
2022/04/02 01:14:39;;;;;;;6.30;2.08;;;;;;;2.81;100.00;101452.41;10219713;28;20051;-72
2022/04/02 01:19:36;;;;;;;5.78;1.92;;;;;;;2.79;100.00;101446.47;10223585;28;20551;-72
2022/04/02 01:24:33;;;;;;;5.57;2.08;;;;;;;2.71;100.00;101456.59;10223527;28;20073;-72
2022/04/02 01:29:33;;;;;;;5.75;2.85;;;;;;;2.82;100.00;101451.38;10211433;28;20050;-72
2022/04/02 01:34:31;;;;;;;6.15;2.22;;;;;;;2.73;100.00;101459.88;10208096;28;20045;-70
2022/04/02 01:39:28;;;;;;;5.45;2.53;;;;;;;2.90;100.00;101459.03;10217883;28;20143;-74
2022/04/02 01:44:24;;;;;;;4.55;2.13;;;;;;;2.77;100.00;101460.22;10225178;28;20103;-74
2022/04/02 01:49:21;;;;;;;3.97;2.00;;;;;;;2.76;100.00;101463.16;10217632;28;20049;-74
2022/04/02 01:54:19;;;;;;;5.70;1.90;;;;;;;2.69;100.00;101464.16;10216517;28;20124;-74
2022/04/02 01:59:16;;;;;;;5.05;2.35;;;;;;;2.80;100.00;101453.50;10221151;28;20077;-75
2022/04/02 02:04:12;;;;;;;5.93;1.80;;;;;;;2.62;100.00;101463.50;10222590;28;20057;-69
2022/04/02 02:09:09;;;;;;;5.22;1.92;;;;;;;2.76;100.00;101455.88;10224075;28;20042;-73
2022/04/02 02:14:05;;;;;;;8.40;2.35;;;;;;;2.73;100.00;101465.28;10222500;28;20045;-73
2022/04/02 02:19:02;;;;;;;5.35;1.98;;;;;;;2.60;100.00;101465.63;10230644;28;20083;-74
2022/04/02 02:23:58;;;;;;;7.07;2.22;;;;;;;2.67;100.00;101469.00;10221351;28;20080;-73
2022/04/02 02:28:55;;;;;;;6.97;2.42;;;;;;;2.74;100.00;101471.53;10225451;28;20073;-73
2022/04/02 02:39:07;;;;;;;6.63;2.22;;;;;;;2.70;100.00;101475.78;10211718;28;20042;-74
2022/04/02 02:44:04;;;;;;;6.53;2.17;;;;;;;2.82;100.00;101467.56;10216930;28;20061;-73
2022/04/02 02:49:00;;;;;;;5.07;2.40;;;;;;;2.86;100.00;101474.13;10228476;28;20049;-72
2022/04/02 02:53:57;;;;;;;6.53;2.72;;;;;;;2.75;100.00;101473.16;10222763;28;20077;-72
2022/04/02 02:58:53;;;;;;;6.47;2.92;;;;;;;2.56;100.00;101479.88;10222040;28;20096;-73
2022/04/02 03:03:50;;;;;;;4.88;2.30;;;;;;;2.50;100.00;101481.66;10217769;28;20050;-72
2022/04/02 03:08:46;;;;;;;7.35;2.72;;;;;;;2.50;100.00;101484.34;10204268;28;20128;-72
2022/04/02 03:13:44;;;;;;;6.93;2.53;;;;;;;2.33;100.00;101486.25;10203505;28;20099;-72
2022/04/02 03:18:40;;;;;;;5.45;2.75;;;;;;;2.25;100.00;101488.28;10217896;28;20605;-72
2022/04/02 03:23:37;;;;;;;6.25;3.05;;;;;;;2.31;100.00;101487.28;10226006;28;20049;-73
2022/04/02 03:28:33;;;;;;;7.10;2.28;;;;;;;2.22;100.00;101486.03;10218173;28;20202;-73
2022/04/02 03:33:30;;;;;;;7.47;2.72;;;;;;;2.27;100.00;101488.81;10229211;28;20544;-71
2022/04/02 03:38:27;;;;;;;7.97;2.80;;;;;;;2.00;100.00;101487.81;10220108;28;20041;-71
2022/04/02 03:43:24;;;;;;;8.55;2.28;;;;;;;1.98;100.00;101489.94;10224182;28;20050;-72
2022/04/02 03:48:20;;;;;;;10.13;3.58;;;;;;;1.88;100.00;101490.53;10218728;28;20081;-75
2022/04/02 03:53:17;;;;;;;5.85;3.03;;;;;;;1.86;100.00;101496.19;10218697;28;20084;-75
2022/04/02 03:58:13;;;;;;;5.82;2.67;;;;;;;1.72;100.00;101502.94;10223320;28;20131;-71
2022/04/02 04:03:10;;;;;;;9.02;2.75;;;;;;;1.72;100.00;101510.19;10221586;28;20077;-71
2022/04/02 04:08:08;;;;;;;6.45;2.70;;;;;;;1.41;100.00;101502.28;10220629;28;20172;-72
2022/04/02 04:13:05;;;;;;;7.40;2.10;;;;;;;1.43;100.00;101519.03;10219461;28;20103;-73
2022/04/02 04:18:01;;;;;;;7.70;2.88;;;;;;;1.66;100.00;101514.66;10222460;28;20104;-72
2022/04/02 04:22:58;;;;;;;5.97;2.47;;;;;;;1.54;100.00;101519.25;10233418;28;20045;-72
2022/04/02 04:27:54;;;;;;;5.25;2.30;;;;;;;1.47;100.00;101527.47;10227553;28;20042;-76
2022/04/02 04:32:51;;;;;;;5.97;2.85;;;;;;;1.06;100.00;101529.25;10235704;28;20677;-76
2022/04/02 04:37:48;;;;;;;7.72;2.80;;;;;;;1.38;100.00;101535.09;10211728;28;20112;-72
2022/04/02 04:42:44;;;;;;;5.80;2.58;;;;;;;1.38;100.00;101539.69;10223338;28;20488;-76
2022/04/02 04:47:44;;;;;;;7.30;2.65;;;;;;;1.26;100.00;101553.97;10205447;28;20056;-76
2022/04/02 04:52:41;;;;;;;9.52;2.72;;;;;;;1.24;100.00;101549.88;10212228;28;20530;-77
2022/04/02 04:57:37;;;;;;;6.30;2.22;;;;;;;1.17;100.00;101563.47;10209129;28;20128;-75
2022/04/02 05:02:35;;;;;;;7.05;2.95;;;;;;;1.26;100.00;101563.94;10204250;28;20129;-75
2022/04/02 05:07:31;;;;;;;5.43;2.53;;;;;;;1.19;100.00;101563.25;10202511;28;20112;-70
2022/04/02 05:12:28;;;;;;;6.53;2.72;;;;;;;1.09;100.00;101573.75;10208949;28;20041;-70
2022/04/02 05:17:24;;;;;;;5.05;2.13;;;;;;;0.95;100.00;101587.47;10222103;28;20077;-70
2022/04/02 05:22:21;;;;;;;7.90;3.38;;;;;;;1.05;100.00;101578.81;10232905;28;20133;-75
2022/04/02 05:27:17;;;;;;;6.95;2.63;;;;;;;1.03;100.00;101587.09;10206391;28;20085;-72
2022/04/02 05:32:13;;;;;;;9.93;2.70;;;;;;;1.05;100.00;101589.56;10197185;28;20042;-72
2022/04/02 05:37:10;;;;;;;5.32;2.10;;;;;;;1.03;100.00;101592.50;10198694;28;20085;-72
2022/04/02 05:42:07;;;;;;;5.03;2.20;;;;;;;0.91;100.00;101605.13;10203916;28;20104;-72
2022/04/02 05:47:04;;;;;;;7.45;2.30;;;;;;;1.12;100.00;101616.41;10208555;28;20054;-70
2022/04/02 05:52:12;;;;;;;5.63;2.45;;;;;;;1.09;100.00;101614.16;10202230;28;20103;-75
2022/04/02 05:57:08;;;;;;;4.38;2.00;;;;;;;1.24;100.00;101615.34;10203020;28;20134;-75
2022/04/02 06:02:06;;;;;;;7.35;1.98;;;;;;;1.15;100.00;101621.31;10200862;28;20053;-75
2022/04/02 06:07:02;;;;;;;4.38;1.98;;;;;;;1.17;100.00;101635.38;10203172;28;20496;-75
2022/04/02 06:11:59;;;;;;;4.75;1.80;;;;;;;1.26;100.00;101645.56;10195875;28;20080;-74
2022/04/02 06:16:55;;;;;;;4.35;2.20;;;;;;;1.47;100.00;101644.19;10194673;28;20096;-68
2022/04/02 06:21:52;;;;;;;5.95;1.63;;;;;;;1.30;100.00;101645.09;10191458;28;20127;-68
2022/04/02 06:26:48;;;;;;;3.95;1.75;;;;;;;1.46;100.00;101650.63;10196876;28;20143;-68
2022/04/02 06:31:45;;;;;;;3.67;1.40;;;;;;;1.62;100.00;101659.06;10190625;28;20042;-69
2022/04/02 06:36:42;;;;;;;4.25;1.73;;;;;;;1.73;100.00;101662.81;10194724;28;20057;-69
2022/04/02 06:41:39;;;;;;;5.10;1.60;;;;;;;1.87;100.00;101667.72;10202742;28;20520;-67
2022/04/02 06:46:37;;;;;;;3.58;1.40;;;;;;;1.93;100.00;101665.13;10213885;28;20499;-66
2022/04/02 06:51:34;;;;;;;4.50;1.40;;;;;;;1.98;100.00;101673.34;10201743;28;20495;-67
2022/04/02 06:56:31;;;;;;;3.90;1.30;;;;;;;2.07;100.00;101674.63;10204460;28;20475;-70
2022/04/02 07:01:27;;;;;;;3.67;1.30;;;;;;;2.22;100.00;101680.31;10196182;28;20103;-69
2022/04/02 07:06:24;;;;;;;4.80;1.23;;;;;;;2.18;100.00;101687.28;10210975;28;20111;-67
2022/04/02 07:11:20;;;;;;;3.33;1.10;;;;;;;2.30;100.00;101682.66;10205008;28;20081;-66
2022/04/02 07:16:17;;;;;;;4.50;1.33;;;;;;;2.25;100.00;101685.25;10204022;28;20812;-66
2022/04/02 07:21:14;;;;;;;4.88;1.75;;;;;;;2.47;100.00;101681.91;10202881;28;20063;-63
2022/04/02 07:26:16;;;;;;;3.38;1.05;;;;;;;2.49;100.00;101690.59;10212653;28;20052;-66
2022/04/02 07:31:12;;;;;;;5.68;1.20;;;;;;;2.51;100.00;101704.69;10213516;28;20045;-67
2022/04/02 07:36:47;;;;;;;5.13;1.65;;;;;;;2.71;100.00;101705.03;10197292;28;20053;-69
2022/04/02 07:41:48;;;;;;;;;;;;;;;2.83;100.00;101706.88;10183868;28;20136;-69
2022/04/02 07:46:47;;;;;;;3.60;0.95;;;;;;;2.97;100.00;101697.44;10196576;28;19933;-67
2022/04/02 07:51:47;;;;;;;4.30;1.13;;;;;;;3.15;100.00;101705.31;10194562;28;20579;-64
2022/04/02 07:56:49;;;;;;;3.00;0.80;;;;;;;3.22;100.00;101707.03;10214338;28;20078;-64
2022/04/02 08:01:48;;;;;;;2.97;0.80;;;;;;;3.40;100.00;101706.81;10206349;28;20099;-64
2022/04/02 08:06:48;;;;;;;2.97;0.90;;;;;;;3.52;100.00;101715.66;10198779;28;20153;-64
2022/04/02 08:11:46;;;;;;;3.83;1.13;;;;;;;3.59;98.84;101719.00;10198760;28;20129;-64
2022/04/02 08:16:45;;;;;;;3.35;1.15;;;;;;;3.65;89.55;101719.13;10198931;28;20076;-65
2022/04/02 08:21:41;;;;;;;4.00;1.08;;;;;;;3.79;97.02;101720.41;10204037;28;20049;-67
2022/04/02 08:26:47;;;;;;;2.85;0.90;;;;;;;3.85;100.00;101727.50;10210918;28;20057;-68
2022/04/02 08:31:54;;;;;;;2.13;0.73;;;;;;;4.00;100.00;101738.56;10209056;28;20041;-65
2022/04/02 08:37:13;;;;;;;2.42;0.77;;;;;;;3.92;98.36;101739.00;10193557;28;20088;-65
2022/04/02 08:42:31;;;;;;;2.72;0.73;;;;;;;4.07;94.67;101738.41;10192541;28;20149;-65
2022/04/02 08:47:42;;;;;;;2.33;0.70;;;;;;;4.31;100.00;101744.41;10195665;28;20551;-68
2022/04/02 08:52:51;;;;;;;2.85;0.85;;;;;;;4.47;100.00;101747.31;10199206;28;20509;-65
2022/04/02 08:57:53;;;;;;;3.33;0.80;;;;;;;4.57;89.45;101745.56;10191738;28;20116;-65
2022/04/02 09:03:20;;;;;;;3.63;1.27;;;;;;;4.64;93.03;101745.34;10193284;28;20722;-65
2022/04/02 09:08:39;;;;;;;3.50;0.90;;;;;;;4.78;100.00;101749.34;10202186;28;20049;-67
2022/04/02 09:14:12;;;;;;;2.05;0.68;;;;;;;4.81;90.66;101750.72;10200166;28;20144;-67
2022/04/02 09:19:14;;;;;;;2.25;0.80;;;;;;;4.98;97.24;101753.34;10204402;28;20136;-65
2022/04/02 09:24:35;;;;;;;1.80;0.60;;;;;;;5.05;100.00;101756.66;10203269;28;20248;-64
2022/04/02 09:29:46;;;;;;;2.70;0.80;;;;;;;5.24;81.46;101757.97;10201773;28;20128;-64
2022/04/02 09:35:06;;;;;;;2.13;0.63;;;;;;;5.28;89.85;101759.06;10214708;28;20049;-64
2022/04/02 09:40:08;;;;;;;2.47;1.00;;;;;;;5.42;96.46;101753.22;10222740;28;20053;-65
2022/04/02 09:45:05;;;;;;;1.55;0.45;;;;;;;5.72;100.00;101752.66;10208989;28;20077;-64
2022/04/02 09:50:10;;;;;;;2.58;1.00;;;;;;;5.93;93.72;101747.38;10203597;28;20156;-64
2022/04/02 09:55:11;;;;;;;2.65;0.90;;;;;;;6.03;65.57;101752.91;10191108;28;20434;-70
2022/04/02 10:00:09;;;;;;;4.05;1.00;;;;;;;6.41;73.52;101754.47;10200729;28;20046;-69
2022/04/02 10:05:14;;;;;;;2.53;0.98;;;;;;;6.90;73.96;101756.84;10202828;28;20053;-71
2022/04/02 10:10:11;;;;;;;2.47;0.95;;;;;;;7.41;73.81;101755.31;10193720;28;20050;-70
2022/04/02 10:15:08;;;;;;;3.75;1.10;;;;;;;7.65;58.31;101750.94;10204133;28;20127;-69
2022/04/02 10:20:08;;;;;;;2.85;1.02;;;;;;;7.49;62.99;101749.31;10202664;28;20160;-69
2022/04/02 10:25:10;;;;;;;2.42;0.82;;;;;;;7.38;76.70;101752.03;10205640;28;20875;-70
2022/04/02 10:30:11;;;;;;;1.77;0.55;;;;;;;7.77;87.55;101735.16;10200745;28;20125;-69
2022/04/02 10:35:13;;;;;;;1.85;0.70;;;;;;;8.79;71.15;101739.47;10192985;28;20057;-68
2022/04/02 10:40:17;;;;;;;3.25;0.80;;;;;;;10.08;71.17;101728.38;10202373;28;20041;-69
2022/04/02 10:45:16;;;;;;;3.28;1.05;;;;;;;10.37;67.38;101724.81;10201986;28;20089;-69
2022/04/02 10:50:17;;;;;;;3.55;0.88;;;;;;;10.88;56.27;101724.13;10215877;28;20120;-69
2022/04/02 10:55:22;;;;;;;3.10;1.00;;;;;;;11.88;43.60;101719.28;10197948;28;20068;-69
2022/04/02 11:00:19;;;;;;;3.88;1.50;;;;;;;12.60;48.29;101720.59;10200062;28;20081;-68
2022/04/02 11:05:17;;;;;;;3.25;1.02;;;;;;;12.72;44.40;101725.59;10210262;28;20156;-69
2022/04/02 11:10:16;;;;;;;2.88;1.10;;;;;;;11.52;48.08;101728.09;10213894;28;20042;-69
2022/04/02 11:15:14;;;;;;;3.47;1.00;;;;;;;10.16;53.96;101733.19;10215890;28;20053;-68
2022/04/02 11:20:17;;;;;;;3.13;1.13;;;;;;;9.42;54.76;101744.28;10181784;28;20078;-68
2022/04/02 11:25:21;;;;;;;3.35;1.00;;;;;;;10.39;44.16;101728.06;10175833;28;20046;-68
2022/04/02 11:30:19;;;;;;;3.15;0.85;;;;;;;10.11;46.79;101733.25;10162683;28;20059;-65
2022/04/02 11:35:29;;;;;;;3.55;1.20;;;;;;;9.32;39.86;101733.44;10152729;28;20733;-69
2022/04/02 11:40:28;;;;;;;3.10;1.00;;;;;;;7.98;37.68;101735.13;10155169;28;20156;-70
2022/04/02 11:45:25;;;;;;;2.55;0.90;;;;;;;8.84;57.96;101733.19;10148065;28;20527;-71
2022/04/02 11:50:25;;;;;;;3.05;1.23;;;;;;;11.04;51.22;101722.81;10145522;28;20042;-72
2022/04/02 11:55:24;;;;;;;4.07;1.08;;;;;;;11.29;37.71;101723.53;10158588;28;20078;-71
2022/04/02 12:00:25;;;;;;;2.97;1.13;;;;;;;9.79;56.58;101734.66;10174273;28;20042;-70
2022/04/02 12:05:34;;;;;;;3.55;1.38;;;;;;;9.20;54.89;101738.44;10174501;28;20073;-69
2022/04/02 12:10:32;;;;;;;2.63;1.17;;;;;;;11.42;51.31;101733.75;10173122;28;20121;-71
2022/04/02 12:15:29;;;;;;;4.43;1.13;;;;;;;10.64;56.28;101732.41;10164806;28;20467;-70
2022/04/02 12:20:28;;;;;;;5.25;1.40;;;;;;;10.05;45.59;101737.19;10154496;28;20050;-70
2022/04/02 12:25:25;;;;;;;3.20;1.10;;;;;;;11.58;63.08;101732.38;10149777;28;20101;-71
2022/04/02 12:30:23;;;;;;;3.15;1.23;;;;;;;13.52;53.80;101721.25;10152575;28;20078;-70
2022/04/02 12:35:25;;;;;;;3.13;1.13;;;;;;;13.58;52.12;101731.00;10152650;28;20058;-70
2022/04/02 12:40:30;;;;;;;3.90;1.60;;;;;;;12.27;43.33;101726.22;10163672;28;20133;-67
2022/04/02 12:45:28;;;;;;;4.15;1.45;;;;;;;11.22;40.96;101728.59;10177463;28;22018;-70
2022/04/02 12:50:26;;;;;;;3.40;1.00;;;;;;;10.65;45.79;101737.59;10166871;28;20041;-71
2022/04/02 12:55:25;;;;;;;2.40;1.10;;;;;;;9.40;43.46;101737.47;10163282;28;20084;-72
2022/04/02 13:00:31;;;;;;;3.95;1.30;;;;;;;9.67;45.72;101729.59;10160793;28;20460;-65
2022/04/02 13:05:46;;;;;;;3.47;0.90;;;;;;;11.05;48.52;101729.94;10165314;28;20539;-65
2022/04/02 13:10:43;;;;;;;2.40;1.00;;;;;;;10.06;37.84;101730.59;10167531;28;20543;-65
2022/04/02 13:15:51;;;;;;;2.90;1.30;;;;;;;9.29;39.46;101744.94;10170257;28;20042;-65
2022/04/02 13:20:48;;;;;;;2.65;0.90;;;;;;;9.13;72.15;101735.22;10173836;28;20041;-65
2022/04/02 13:26:00;;;;;;;2.38;1.10;;;;;;;8.92;42.71;101740.78;10164472;28;20161;-64
2022/04/02 13:30:58;;;;;;;2.90;1.10;;;;;;;8.68;36.29;101737.09;10170169;28;20523;-65
2022/04/02 13:36:16;;;;;;;3.25;1.05;;;;;;;8.55;40.55;101736.59;10185243;28;20099;-64
2022/04/02 13:41:22;;;;;;;2.63;1.02;;;;;;;8.93;38.13;101731.50;10170914;28;20046;-65
2022/04/02 13:46:23;;;;;;;2.90;1.05;;;;;;;10.02;40.70;101737.72;10182021;28;20069;-65
2022/04/02 13:51:43;;;;;;;5.30;1.15;;;;;;;9.39;42.16;101744.84;10179135;28;20058;-65
2022/04/02 13:56:41;;;;;;;4.47;1.10;;;;;;;8.93;60.28;101745.13;10179257;28;20511;-65
2022/04/02 14:01:50;;;;;;;4.25;0.82;;;;;;;8.69;44.95;101746.91;10186077;28;20046;-65
2022/04/02 14:06:54;;;;;;;4.30;1.25;;;;;;;9.33;41.00;101740.53;10173891;28;20447;-64
2022/04/02 14:11:59;;;;;;;5.53;1.38;;;;;;;11.34;40.03;101737.16;10170672;28;20510;-65
2022/04/02 14:17:05;;;;;;;2.40;1.08;;;;;;;12.16;43.41;101735.75;10174826;28;21013;-65
2022/04/02 14:22:04;;;;;;;3.08;1.10;;;;;;;11.10;47.74;101740.78;10178512;28;20463;-65
2022/04/02 14:27:32;;;;;;;2.00;0.82;;;;;;;9.87;48.61;101749.63;10165448;28;20539;-65
2022/04/02 14:32:43;;;;;;;2.88;1.00;;;;;;;9.36;43.03;101759.06;10169170;28;20531;-65
2022/04/02 14:38:09;;;;;;;2.72;1.00;;;;;;;9.43;56.31;101759.56;10163693;28;20493;-65
2022/04/02 14:43:38;;;;;;;3.33;0.98;;;;;;;9.58;57.67;101757.81;10123245;28;20492;-65
2022/04/02 14:49:07;;;;;;;2.17;1.10;;;;;;;9.92;42.30;101751.50;10147432;28;20050;-65
2022/04/02 14:54:35;;;;;;;2.83;1.23;;;;;;;11.05;75.73;101751.81;10152591;28;20165;-66
2022/04/02 15:00:05;;;;;;;4.38;1.10;;;;;;;10.66;55.75;101750.16;10166874;28;20080;-66
2022/04/02 15:05:44;;;;;;;3.40;1.20;;;;;;;10.34;53.33;101747.28;10160755;28;20159;-66
2022/04/02 15:10:50;;;;;;;2.83;0.93;;;;;;;10.05;53.17;101759.03;10157757;28;20045;-66
2022/04/02 15:15:48;;;;;;;2.80;1.10;;;;;;;10.46;39.97;101755.88;10154530;28;20045;-65
2022/04/02 15:21:15;;;;;;;2.13;0.93;;;;;;;11.05;53.28;101745.53;10170936;28;20571;-66
2022/04/02 15:26:20;;;;;;;3.25;1.10;;;;;;;9.95;47.70;101750.91;10160289;28;20046;-65
2022/04/02 15:31:29;;;;;;;2.53;0.85;;;;;;;9.42;53.50;101749.75;10179694;28;20038;-66
2022/04/02 15:36:27;;;;;;;3.08;1.00;;;;;;;8.88;41.91;101756.09;10161375;28;20131;-65
2022/04/02 15:41:55;;;;;;;5.32;1.58;;;;;;;8.87;42.31;101757.19;10182926;28;20124;-66
2022/04/02 15:46:51;;;;;;;3.65;0.85;;;;;;;9.00;51.72;101753.00;10153134;28;20310;-67
2022/04/02 15:51:48;;;;;;;2.80;1.00;;;;;;;9.30;82.59;101762.09;10153468;28;20056;-66
2022/04/02 15:57:10;;;;;;;3.17;1.00;;;;;;;9.44;98.28;101774.81;10151718;28;20173;-65
2022/04/02 16:02:38;;;;;;;2.97;1.00;;;;;;;10.82;57.91;101769.91;10155232;28;20149;-66
2022/04/02 16:07:35;;;;;;;2.92;1.00;;;;;;;10.95;38.92;101773.84;10178220;28;20104;-66
2022/04/02 16:12:33;;;;;;;3.17;1.00;;;;;;;10.44;45.08;101769.84;10151389;28;20443;-67
2022/04/02 16:17:30;;;;;;;4.18;1.35;;;;;;;10.11;44.07;101777.00;10162061;28;20077;-66
2022/04/02 16:22:29;;;;;;;2.53;0.90;;;;;;;9.96;52.95;101780.69;10168584;28;20562;-65
2022/04/02 16:27:27;;;;;;;2.88;1.00;;;;;;;9.35;45.54;101792.94;10163681;28;20054;-65
2022/04/02 16:32:29;;;;;;;2.67;0.98;;;;;;;8.88;64.25;101793.47;10160595;28;20547;-64
2022/04/02 16:37:27;;;;;;;2.83;1.33;;;;;;;8.34;35.04;101789.53;10163253;28;20128;-66
2022/04/02 16:42:25;;;;;;;4.32;1.20;;;;;;;8.19;35.75;101793.94;10153715;28;20597;-65
2022/04/02 16:47:24;;;;;;;1.98;0.80;;;;;;;8.13;38.82;101797.75;10152843;28;20083;-65
2022/04/02 16:52:27;;;;;;;5.30;1.30;;;;;;;8.35;32.35;101804.78;10155739;28;20393;-63
2022/04/02 16:57:34;;;;;;;3.00;1.20;;;;;;;8.60;30.46;101810.19;10148455;28;20133;-63
2022/04/02 17:02:36;;;;;;;3.30;1.02;;;;;;;8.18;29.86;101814.06;10157100;28;20073;-62
2022/04/02 17:07:54;;;;;;;5.45;2.45;;;;;;;8.96;32.05;101812.78;10153221;28;20092;-63
2022/04/02 17:13:17;;;;;;;5.03;1.50;;;;;;;8.85;34.29;101822.09;10150843;28;20546;-62
2022/04/02 17:18:17;;;;;;;2.55;1.00;;;;;;;8.52;33.04;101827.13;10154870;28;20064;-64
2022/04/02 17:23:38;;;;;;;3.13;1.00;;;;;;;8.19;32.34;101829.34;10162882;28;20045;-64
2022/04/02 17:28:46;;;;;;;4.07;1.05;;;;;;;7.39;33.90;101839.91;10163932;28;20038;-63
2022/04/02 17:33:46;;;;;;;3.65;1.20;;;;;;;7.36;33.78;101835.84;10147602;28;20161;-64
2022/04/02 17:38:50;;;;;;;4.68;1.40;;;;;;;7.08;34.34;101848.00;10144480;28;20059;-63
2022/04/02 17:43:46;;;;;;;4.82;1.23;;;;;;;7.10;35.58;101847.72;10143566;28;20693;-63
2022/04/02 17:48:43;;;;;;;3.42;1.17;;;;;;;6.74;34.46;101855.72;10147156;28;20990;-65
2022/04/02 17:53:42;;;;;;;3.13;1.27;;;;;;;6.34;34.02;101861.75;10171199;28;20042;-65
2022/04/02 17:58:40;;;;;;;2.83;1.38;;;;;;;6.47;35.76;101862.06;10169157;28;20073;-65
2022/04/02 18:03:43;;;;;;;3.72;1.02;;;;;;;6.11;35.68;101870.00;10169616;28;20496;-64
2022/04/02 18:08:40;;;;;;;3.42;1.10;;;;;;;6.01;35.98;101880.78;10180526;28;20144;-65
2022/04/02 18:13:44;;;;;;;3.28;1.10;;;;;;;5.67;36.67;101878.25;10187707;28;20476;-64
2022/04/02 18:18:42;;;;;;;3.13;1.20;;;;;;;5.66;37.74;101895.63;10163462;28;20133;-65
2022/04/02 18:23:39;;;;;;;5.20;2.30;;;;;;;5.67;37.39;101897.25;10172169;28;20053;-64
2022/04/02 18:28:36;;;;;;;7.00;3.22;;;;;;;5.34;38.77;101909.09;10175453;28;20057;-65
2022/04/02 18:33:33;;;;;;;5.20;2.17;;;;;;;5.19;39.85;101912.44;10184341;28;20121;-65
2022/04/02 18:38:30;;;;;;;5.43;2.00;;;;;;;4.99;40.36;101915.72;10167115;28;20042;-65
2022/04/02 18:43:26;;;;;;;4.80;2.20;;;;;;;4.74;40.87;101921.59;10184494;28;20116;-65
2022/04/02 18:48:23;;;;;;;8.30;2.88;;;;;;;4.88;41.32;101921.25;10167157;28;20149;-65
2022/04/02 18:53:20;;;;;;;5.70;2.47;;;;;;;4.82;43.27;101928.47;10181858;28;20073;-65
2022/04/02 18:58:19;;;;;;;4.88;2.30;;;;;;;4.50;42.39;101928.28;10168309;28;20093;-65
2022/04/02 19:03:16;;;;;;;4.65;2.25;;;;;;;4.75;43.94;101928.66;10159401;28;20092;-65
2022/04/02 19:08:13;;;;;;;7.50;2.80;;;;;;;4.59;45.21;101933.00;10162180;28;20049;-64
2022/04/02 19:13:10;;;;;;;8.50;2.92;;;;;;;4.57;47.38;101937.88;10185286;28;20052;-64
2022/04/02 19:18:06;;;;;;;5.50;2.58;;;;;;;4.49;47.93;101935.59;10178280;28;20389;-64
2022/04/02 19:23:06;;;;;;;6.82;3.15;;;;;;;4.24;47.92;101938.69;10178960;28;20133;-64
2022/04/02 19:28:03;;;;;;;4.93;2.40;;;;;;;4.13;50.78;101950.41;10169043;28;20057;-64
2022/04/02 19:33:00;;;;;;;6.30;3.08;;;;;;;4.07;47.94;101948.69;10175499;28;20066;-64
2022/04/02 19:37:57;;;;;;;5.32;2.33;;;;;;;3.92;50.82;101941.09;10178780;28;20050;-64
2022/04/02 19:42:54;;;;;;;6.97;3.15;;;;;;;3.80;50.93;101946.56;10173798;28;20109;-64
2022/04/02 19:47:51;;;;;;;6.85;2.53;;;;;;;3.75;52.73;101951.91;10170082;28;20057;-64
2022/04/02 19:52:47;;;;;;;5.72;2.60;;;;;;;3.59;54.36;101954.31;10185134;28;20054;-64
2022/04/02 19:57:44;;;;;;;6.32;2.95;;;;;;;3.52;53.70;101959.03;10183508;28;20061;-64
2022/04/02 20:02:41;;;;;;;7.13;3.40;;;;;;;3.45;58.29;101961.06;10193990;28;20763;-64
2022/04/02 20:07:37;;;;;;;5.50;2.70;;;;;;;3.31;57.63;101951.56;10185474;28;20050;-63
2022/04/02 20:12:35;;;;;;;8.35;3.00;;;;;;;3.25;57.54;101958.75;10194229;28;20458;-66
2022/04/02 20:17:32;;;;;;;6.88;3.28;;;;;;;3.11;60.36;101968.16;10188711;28;20506;-64
2022/04/02 20:22:28;;;;;;;7.93;3.42;;;;;;;3.04;60.92;101973.72;10191404;28;20554;-64
2022/04/02 20:27:26;;;;;;;8.95;3.33;;;;;;;3.11;60.97;101974.41;10178011;28;20560;-66
2022/04/02 20:32:22;;;;;;;6.93;3.45;;;;;;;3.09;61.30;101976.53;10184156;28;20042;-66
2022/04/02 20:37:19;;;;;;;9.88;3.83;;;;;;;3.08;61.19;101977.56;10167033;28;20081;-65
2022/04/02 20:42:19;;;;;;;7.53;4.18;;;;;;;3.07;61.03;101978.66;10167618;28;20086;-65
2022/04/02 20:47:16;;;;;;;8.90;3.60;;;;;;;2.99;63.52;101976.28;10170345;28;20396;-65
2022/04/02 20:52:12;;;;;;;9.65;3.40;;;;;;;2.99;63.64;101973.59;10188925;28;20660;-65
2022/04/02 20:57:09;;;;;;;8.43;3.15;;;;;;;2.71;68.79;101969.72;10167679;28;20141;-68
2022/04/02 21:02:05;;;;;;;5.70;3.28;;;;;;;2.54;66.77;101984.97;10169901;28;20136;-67
2022/04/02 21:07:02;;;;;;;7.85;3.78;;;;;;;2.53;72.08;101977.94;10166637;28;20124;-64
2022/04/02 21:11:59;;;;;;;11.07;4.63;;;;;;;2.51;69.76;101986.25;10170343;28;20146;-65
2022/04/02 21:16:55;;;;;;;8.95;4.40;;;;;;;2.58;66.75;101980.75;10171676;28;20129;-63
2022/04/02 21:21:52;;;;;;;7.97;3.92;;;;;;;2.49;73.12;101982.97;10172601;28;20218;-64
2022/04/02 21:26:51;;;;;;;10.68;4.60;;;;;;;2.37;72.29;101986.69;10167493;28;20420;-65
2022/04/02 21:31:48;;;;;;;7.93;4.53;;;;;;;2.24;73.99;101976.94;10192998;28;20676;-65
2022/04/02 21:36:45;;;;;;;10.40;5.45;;;;;;;2.16;74.03;101988.91;10180367;28;20046;-64
2022/04/02 21:41:42;;;;;;;13.23;5.45;;;;;;;2.04;76.72;101980.78;10191666;28;20492;-64
2022/04/02 21:46:38;;;;;;;9.05;4.40;;;;;;;2.01;76.13;101983.09;10187454;28;20125;-64
2022/04/02 21:51:35;;;;;;;8.18;3.85;;;;;;;1.90;78.25;101979.28;10185878;28;20119;-66
2022/04/02 21:56:31;;;;;;;9.82;4.50;;;;;;;1.94;78.42;101979.66;10178666;28;20100;-65
2022/04/02 22:01:57;;;;;;;7.70;3.92;;;;;;;1.82;79.17;101977.75;10190651;28;20136;-65
2022/04/02 22:06:54;;;;;;;7.20;3.58;;;;;;;1.64;79.14;101991.25;10182546;28;20415;-66
2022/04/02 22:11:50;;;;;;;9.40;4.43;;;;;;;1.89;70.95;101989.25;10191573;28;20145;-65
2022/04/02 22:16:46;;;;;;;9.10;4.03;;;;;;;1.69;76.79;101996.78;10178480;28;20137;-65
2022/04/02 22:21:44;;;;;;;7.38;4.25;;;;;;;1.75;75.35;101987.78;10176971;28;20053;-65
2022/04/02 22:26:40;;;;;;;8.95;4.20;;;;;;;1.62;78.71;101993.34;10177280;28;20112;-65
2022/04/02 22:31:38;;;;;;;9.80;4.07;;;;;;;1.58;81.00;101997.53;10190119;28;20123;-66
2022/04/02 22:36:40;;;;;;;9.18;3.72;;;;;;;1.46;81.22;101990.25;10173287;28;20073;-66
2022/04/02 22:41:37;;;;;;;8.60;4.75;;;;;;;1.35;83.77;101985.59;10174893;28;20042;-65
2022/04/02 22:46:34;;;;;;;8.30;4.13;;;;;;;1.44;81.97;102003.13;10162385;28;20584;-67
2022/04/02 22:51:30;;;;;;;9.85;5.43;;;;;;;1.33;85.04;101998.47;10189535;28;20120;-65
2022/04/02 22:56:27;;;;;;;8.85;3.78;;;;;;;1.27;88.07;102002.03;10203468;28;20137;-66
2022/04/02 23:01:23;;;;;;;9.07;4.43;;;;;;;1.22;87.06;101999.22;10189126;28;20515;-64
2022/04/02 23:06:25;;;;;;;9.45;4.40;;;;;;;1.26;86.97;102001.22;10174509;28;20104;-65
2022/04/02 23:11:22;;;;;;;8.57;4.93;;;;;;;1.22;88.40;101999.22;10189548;28;20090;-65
2022/04/02 23:16:18;;;;;;;10.38;4.32;;;;;;;1.20;91.16;101998.59;10184711;28;20074;-64